sensor_id;sensor_type;location;lat;lon;timestamp;temperature;humidity
19248;DHT22;9758;48.640;8.148;2024-01-07T00:00:41;7.10;62.00
19248;DHT22;9758;48.640;8.148;2024-01-07T00:03:08;7.10;61.80
19248;DHT22;9758;48.640;8.148;2024-01-07T00:05:36;7.20;62.00
19248;DHT22;9758;48.640;8.148;2024-01-07T00:08:03;7.20;61.90
19248;DHT22;9758;48.640;8.148;2024-01-07T00:10:30;7.30;61.80
19248;DHT22;9758;48.640;8.148;2024-01-07T00:12:58;7.30;61.80
19248;DHT22;9758;48.640;8.148;2024-01-07T00:15:25;7.40;61.80
19248;DHT22;9758;48.640;8.148;2024-01-07T00:17:52;7.40;61.60
19248;DHT22;9758;48.640;8.148;2024-01-07T00:20:18;7.40;61.60
19248;DHT22;9758;48.640;8.148;2024-01-07T00:22:45;7.40;61.50
19248;DHT22;9758;48.640;8.148;2024-01-07T00:25:12;7.40;61.50
19248;DHT22;9758;48.640;8.148;2024-01-07T00:27:39;7.50;61.50
19248;DHT22;9758;48.640;8.148;2024-01-07T00:30:07;7.40;61.40
19248;DHT22;9758;48.640;8.148;2024-01-07T00:32:34;7.40;61.40
19248;DHT22;9758;48.640;8.148;2024-01-07T00:35:01;7.40;61.50
19248;DHT22;9758;48.640;8.148;2024-01-07T00:37:27;7.40;61.40
19248;DHT22;9758;48.640;8.148;2024-01-07T00:39:54;7.40;61.50
19248;DHT22;9758;48.640;8.148;2024-01-07T00:42:21;7.30;61.50
19248;DHT22;9758;48.640;8.148;2024-01-07T00:44:48;7.30;61.80
19248;DHT22;9758;48.640;8.148;2024-01-07T00:47:16;7.20;61.70
19248;DHT22;9758;48.640;8.148;2024-01-07T00:49:42;7.20;61.70
19248;DHT22;9758;48.640;8.148;2024-01-07T00:52:09;7.20;61.70
19248;DHT22;9758;48.640;8.148;2024-01-07T00:54:36;7.20;61.80
19248;DHT22;9758;48.640;8.148;2024-01-07T00:57:03;7.20;61.70
19248;DHT22;9758;48.640;8.148;2024-01-07T00:59:30;7.20;61.80
19248;DHT22;9758;48.640;8.148;2024-01-07T01:01:57;7.20;61.80
19248;DHT22;9758;48.640;8.148;2024-01-07T01:04:25;7.20;61.80
19248;DHT22;9758;48.640;8.148;2024-01-07T01:06:51;7.30;61.80
19248;DHT22;9758;48.640;8.148;2024-01-07T01:09:18;7.30;61.70
19248;DHT22;9758;48.640;8.148;2024-01-07T01:11:45;7.30;61.70
19248;DHT22;9758;48.640;8.148;2024-01-07T01:14:11;7.40;61.70
19248;DHT22;9758;48.640;8.148;2024-01-07T01:16:38;7.40;61.60
19248;DHT22;9758;48.640;8.148;2024-01-07T01:19:05;7.40;61.60
19248;DHT22;9758;48.640;8.148;2024-01-07T01:21:33;7.40;61.60
19248;DHT22;9758;48.640;8.148;2024-01-07T01:24:00;7.40;61.50
19248;DHT22;9758;48.640;8.148;2024-01-07T01:26:27;7.40;61.70
19248;DHT22;9758;48.640;8.148;2024-01-07T01:28:54;7.40;61.70
19248;DHT22;9758;48.640;8.148;2024-01-07T01:31:20;7.40;61.70
19248;DHT22;9758;48.640;8.148;2024-01-07T01:33:47;7.40;61.70
19248;DHT22;9758;48.640;8.148;2024-01-07T01:36:14;7.50;61.70
19248;DHT22;9758;48.640;8.148;2024-01-07T01:38:42;7.50;61.60
19248;DHT22;9758;48.640;8.148;2024-01-07T01:41:08;7.50;61.50
19248;DHT22;9758;48.640;8.148;2024-01-07T01:43:35;7.60;61.50
19248;DHT22;9758;48.640;8.148;2024-01-07T01:46:02;7.60;61.50
19248;DHT22;9758;48.640;8.148;2024-01-07T01:48:29;7.60;61.50
19248;DHT22;9758;48.640;8.148;2024-01-07T01:50:56;7.60;61.50
19248;DHT22;9758;48.640;8.148;2024-01-07T01:53:24;7.60;61.40
19248;DHT22;9758;48.640;8.148;2024-01-07T01:55:52;7.60;61.40
19248;DHT22;9758;48.640;8.148;2024-01-07T01:58:19;7.60;61.40
19248;DHT22;9758;48.640;8.148;2024-01-07T02:00:47;7.60;61.40
19248;DHT22;9758;48.640;8.148;2024-01-07T02:03:13;7.60;61.50
19248;DHT22;9758;48.640;8.148;2024-01-07T02:05:40;7.60;61.50
19248;DHT22;9758;48.640;8.148;2024-01-07T02:08:07;7.60;62.20
19248;DHT22;9758;48.640;8.148;2024-01-07T02:10:34;7.60;61.50
19248;DHT22;9758;48.640;8.148;2024-01-07T02:13:03;7.60;61.50
19248;DHT22;9758;48.640;8.148;2024-01-07T02:15:30;7.60;61.40
19248;DHT22;9758;48.640;8.148;2024-01-07T02:17:57;7.60;61.40
19248;DHT22;9758;48.640;8.148;2024-01-07T02:20:24;7.60;61.40
19248;DHT22;9758;48.640;8.148;2024-01-07T02:22:50;7.50;61.40
19248;DHT22;9758;48.640;8.148;2024-01-07T02:25:19;7.50;61.50
19248;DHT22;9758;48.640;8.148;2024-01-07T02:27:46;7.50;61.70
19248;DHT22;9758;48.640;8.148;2024-01-07T02:30:12;7.50;61.70
19248;DHT22;9758;48.640;8.148;2024-01-07T02:32:39;7.40;61.60
19248;DHT22;9758;48.640;8.148;2024-01-07T02:35:06;7.50;61.80
19248;DHT22;9758;48.640;8.148;2024-01-07T02:37:33;7.40;61.70
19248;DHT22;9758;48.640;8.148;2024-01-07T02:40:00;7.40;61.70
19248;DHT22;9758;48.640;8.148;2024-01-07T02:42:28;7.40;61.70
19248;DHT22;9758;48.640;8.148;2024-01-07T02:44:55;7.40;61.80
19248;DHT22;9758;48.640;8.148;2024-01-07T02:47:22;7.40;61.90
19248;DHT22;9758;48.640;8.148;2024-01-07T02:49:49;7.30;61.70
19248;DHT22;9758;48.640;8.148;2024-01-07T02:52:15;7.30;61.70
19248;DHT22;9758;48.640;8.148;2024-01-07T02:54:42;7.30;62.00
19248;DHT22;9758;48.640;8.148;2024-01-07T02:57:09;7.20;61.80
19248;DHT22;9758;48.640;8.148;2024-01-07T02:59:37;7.20;62.00
19248;DHT22;9758;48.640;8.148;2024-01-07T03:02:03;7.10;61.80
19248;DHT22;9758;48.640;8.148;2024-01-07T03:04:30;7.10;62.00
19248;DHT22;9758;48.640;8.148;2024-01-07T03:06:57;7.10;62.00
19248;DHT22;9758;48.640;8.148;2024-01-07T03:09:24;7.00;61.90
19248;DHT22;9758;48.640;8.148;2024-01-07T03:11:51;7.00;62.10
19248;DHT22;9758;48.640;8.148;2024-01-07T03:14:19;7.00;62.00
19248;DHT22;9758;48.640;8.148;2024-01-07T03:16:48;6.90;62.30
19248;DHT22;9758;48.640;8.148;2024-01-07T03:19:15;6.80;62.10
19248;DHT22;9758;48.640;8.148;2024-01-07T03:21:42;6.80;62.30
19248;DHT22;9758;48.640;8.148;2024-01-07T03:24:08;6.80;62.30
19248;DHT22;9758;48.640;8.148;2024-01-07T03:26:35;6.70;62.40
19248;DHT22;9758;48.640;8.148;2024-01-07T03:29:02;6.80;62.50
19248;DHT22;9758;48.640;8.148;2024-01-07T03:31:29;6.80;62.40
19248;DHT22;9758;48.640;8.148;2024-01-07T03:33:57;6.70;62.40
19248;DHT22;9758;48.640;8.148;2024-01-07T03:36:24;6.70;62.50
19248;DHT22;9758;48.640;8.148;2024-01-07T03:38:50;6.80;62.50
19248;DHT22;9758;48.640;8.148;2024-01-07T03:41:19;6.70;62.40
19248;DHT22;9758;48.640;8.148;2024-01-07T03:43:46;6.70;62.30
19248;DHT22;9758;48.640;8.148;2024-01-07T03:46:13;6.70;62.40
19248;DHT22;9758;48.640;8.148;2024-01-07T03:48:38;6.60;62.40
19248;DHT22;9758;48.640;8.148;2024-01-07T03:51:07;6.60;62.50
19248;DHT22;9758;48.640;8.148;2024-01-07T03:53:33;6.50;62.60
19248;DHT22;9758;48.640;8.148;2024-01-07T03:56:00;6.50;62.70
19248;DHT22;9758;48.640;8.148;2024-01-07T03:58:27;6.50;62.90
19248;DHT22;9758;48.640;8.148;2024-01-07T04:00:54;6.50;62.80
19248;DHT22;9758;48.640;8.148;2024-01-07T04:03:20;6.50;62.90
19248;DHT22;9758;48.640;8.148;2024-01-07T04:05:47;6.50;62.90
19248;DHT22;9758;48.640;8.148;2024-01-07T04:08:15;6.50;62.80
19248;DHT22;9758;48.640;8.148;2024-01-07T04:10:42;6.50;62.90
19248;DHT22;9758;48.640;8.148;2024-01-07T04:13:09;6.60;63.00
19248;DHT22;9758;48.640;8.148;2024-01-07T04:15:35;6.60;63.00
19248;DHT22;9758;48.640;8.148;2024-01-07T04:18:03;6.60;62.80
19248;DHT22;9758;48.640;8.148;2024-01-07T04:20:30;6.70;62.70
19248;DHT22;9758;48.640;8.148;2024-01-07T04:22:57;6.70;62.60
19248;DHT22;9758;48.640;8.148;2024-01-07T04:25:25;6.70;62.70
19248;DHT22;9758;48.640;8.148;2024-01-07T04:27:52;6.70;62.70
19248;DHT22;9758;48.640;8.148;2024-01-07T04:30:19;6.70;62.70
19248;DHT22;9758;48.640;8.148;2024-01-07T04:32:45;6.80;62.70
19248;DHT22;9758;48.640;8.148;2024-01-07T04:35:12;6.90;62.60
19248;DHT22;9758;48.640;8.148;2024-01-07T04:37:39;6.90;62.40
19248;DHT22;9758;48.640;8.148;2024-01-07T04:40:06;6.90;62.30
19248;DHT22;9758;48.640;8.148;2024-01-07T04:42:35;6.90;62.40
19248;DHT22;9758;48.640;8.148;2024-01-07T04:45:02;6.90;62.40
19248;DHT22;9758;48.640;8.148;2024-01-07T04:47:30;7.00;62.30
19248;DHT22;9758;48.640;8.148;2024-01-07T04:49:57;7.00;62.30
19248;DHT22;9758;48.640;8.148;2024-01-07T04:52:24;7.10;62.30
19248;DHT22;9758;48.640;8.148;2024-01-07T04:54:51;7.10;62.20
19248;DHT22;9758;48.640;8.148;2024-01-07T04:57:18;7.10;62.10
19248;DHT22;9758;48.640;8.148;2024-01-07T04:59:47;7.10;62.10
19248;DHT22;9758;48.640;8.148;2024-01-07T05:02:14;7.10;62.10
19248;DHT22;9758;48.640;8.148;2024-01-07T05:04:42;7.10;62.10
19248;DHT22;9758;48.640;8.148;2024-01-07T05:07:09;7.10;62.10
19248;DHT22;9758;48.640;8.148;2024-01-07T05:09:35;7.20;62.10
19248;DHT22;9758;48.640;8.148;2024-01-07T05:12:03;7.20;62.00
19248;DHT22;9758;48.640;8.148;2024-01-07T05:14:29;7.20;61.90
19248;DHT22;9758;48.640;8.148;2024-01-07T05:16:57;7.20;62.00
19248;DHT22;9758;48.640;8.148;2024-01-07T05:19:24;7.10;61.80
19248;DHT22;9758;48.640;8.148;2024-01-07T05:21:51;7.10;61.80
19248;DHT22;9758;48.640;8.148;2024-01-07T05:24:18;7.10;61.90
19248;DHT22;9758;48.640;8.148;2024-01-07T05:26:45;7.10;61.90
19248;DHT22;9758;48.640;8.148;2024-01-07T05:29:12;7.10;61.90
19248;DHT22;9758;48.640;8.148;2024-01-07T05:31:39;7.10;61.80
19248;DHT22;9758;48.640;8.148;2024-01-07T05:34:07;7.10;61.80
19248;DHT22;9758;48.640;8.148;2024-01-07T05:36:34;7.00;61.80
19248;DHT22;9758;48.640;8.148;2024-01-07T05:39:01;7.00;61.80
19248;DHT22;9758;48.640;8.148;2024-01-07T05:41:28;7.00;61.90
19248;DHT22;9758;48.640;8.148;2024-01-07T05:43:55;7.00;61.90
19248;DHT22;9758;48.640;8.148;2024-01-07T05:46:21;7.00;62.00
19248;DHT22;9758;48.640;8.148;2024-01-07T05:48:49;7.00;62.10
19248;DHT22;9758;48.640;8.148;2024-01-07T05:51:17;7.00;62.00
19248;DHT22;9758;48.640;8.148;2024-01-07T05:53:44;7.00;62.00
19248;DHT22;9758;48.640;8.148;2024-01-07T05:56:11;7.00;62.00
19248;DHT22;9758;48.640;8.148;2024-01-07T05:58:38;7.10;62.00
19248;DHT22;9758;48.640;8.148;2024-01-07T06:01:06;7.10;62.00
19248;DHT22;9758;48.640;8.148;2024-01-07T06:03:34;7.10;61.90
19248;DHT22;9758;48.640;8.148;2024-01-07T06:06:01;7.20;61.90
19248;DHT22;9758;48.640;8.148;2024-01-07T06:08:29;7.20;61.80
19248;DHT22;9758;48.640;8.148;2024-01-07T06:10:55;7.20;61.70
19248;DHT22;9758;48.640;8.148;2024-01-07T06:13:22;7.30;61.80
19248;DHT22;9758;48.640;8.148;2024-01-07T06:15:49;7.30;61.80
19248;DHT22;9758;48.640;8.148;2024-01-07T06:18:16;7.30;61.80
19248;DHT22;9758;48.640;8.148;2024-01-07T06:20:42;7.30;61.70
19248;DHT22;9758;48.640;8.148;2024-01-07T06:23:09;7.30;61.70
19248;DHT22;9758;48.640;8.148;2024-01-07T06:25:37;7.30;61.60
19248;DHT22;9758;48.640;8.148;2024-01-07T06:28:05;7.40;61.70
19248;DHT22;9758;48.640;8.148;2024-01-07T06:30:31;7.30;61.70
19248;DHT22;9758;48.640;8.148;2024-01-07T06:32:59;7.30;61.70
19248;DHT22;9758;48.640;8.148;2024-01-07T06:35:25;7.30;61.70
19248;DHT22;9758;48.640;8.148;2024-01-07T06:37:52;7.30;61.70
19248;DHT22;9758;48.640;8.148;2024-01-07T06:40:19;7.30;61.60
19248;DHT22;9758;48.640;8.148;2024-01-07T06:42:47;7.30;61.50
19248;DHT22;9758;48.640;8.148;2024-01-07T06:45:14;7.30;61.60
19248;DHT22;9758;48.640;8.148;2024-01-07T06:47:41;7.20;61.50
19248;DHT22;9758;48.640;8.148;2024-01-07T06:50:09;7.20;61.50
19248;DHT22;9758;48.640;8.148;2024-01-07T06:52:36;7.20;61.70
19248;DHT22;9758;48.640;8.148;2024-01-07T06:55:03;7.10;61.70
19248;DHT22;9758;48.640;8.148;2024-01-07T06:57:31;7.10;61.80
19248;DHT22;9758;48.640;8.148;2024-01-07T07:00:00;7.10;61.80
19248;DHT22;9758;48.640;8.148;2024-01-07T07:02:28;7.10;61.80
19248;DHT22;9758;48.640;8.148;2024-01-07T07:04:54;7.10;61.80
19248;DHT22;9758;48.640;8.148;2024-01-07T07:07:21;7.00;61.80
19248;DHT22;9758;48.640;8.148;2024-01-07T07:09:48;7.00;61.80
19248;DHT22;9758;48.640;8.148;2024-01-07T07:12:15;7.00;62.00
19248;DHT22;9758;48.640;8.148;2024-01-07T07:14:42;7.00;62.00
19248;DHT22;9758;48.640;8.148;2024-01-07T07:17:10;7.10;62.80
19248;DHT22;9758;48.640;8.148;2024-01-07T07:19:37;7.10;62.00
19248;DHT22;9758;48.640;8.148;2024-01-07T07:22:04;7.10;62.00
19248;DHT22;9758;48.640;8.148;2024-01-07T07:24:31;7.00;61.80
19248;DHT22;9758;48.640;8.148;2024-01-07T07:26:57;6.90;61.90
19248;DHT22;9758;48.640;8.148;2024-01-07T07:29:24;6.90;62.10
19248;DHT22;9758;48.640;8.148;2024-01-07T07:31:51;6.90;62.20
19248;DHT22;9758;48.640;8.148;2024-01-07T07:34:19;6.90;62.20
19248;DHT22;9758;48.640;8.148;2024-01-07T07:36:46;6.90;62.20
19248;DHT22;9758;48.640;8.148;2024-01-07T07:39:13;6.90;62.40
19248;DHT22;9758;48.640;8.148;2024-01-07T07:41:40;6.90;62.30
19248;DHT22;9758;48.640;8.148;2024-01-07T07:44:07;7.00;62.30
19248;DHT22;9758;48.640;8.148;2024-01-07T07:46:33;7.00;62.30
19248;DHT22;9758;48.640;8.148;2024-01-07T07:49:00;7.00;62.20
19248;DHT22;9758;48.640;8.148;2024-01-07T07:51:29;7.00;62.30
19248;DHT22;9758;48.640;8.148;2024-01-07T07:53:55;7.00;62.10
19248;DHT22;9758;48.640;8.148;2024-01-07T07:56:22;7.10;62.20
19248;DHT22;9758;48.640;8.148;2024-01-07T07:58:49;7.10;62.10
19248;DHT22;9758;48.640;8.148;2024-01-07T08:01:17;7.10;62.10
19248;DHT22;9758;48.640;8.148;2024-01-07T08:03:44;7.10;62.20
19248;DHT22;9758;48.640;8.148;2024-01-07T08:06:11;7.10;62.10
19248;DHT22;9758;48.640;8.148;2024-01-07T08:08:38;7.10;62.10
19248;DHT22;9758;48.640;8.148;2024-01-07T08:11:05;7.20;62.10
19248;DHT22;9758;48.640;8.148;2024-01-07T08:13:35;7.20;62.00
19248;DHT22;9758;48.640;8.148;2024-01-07T08:16:03;7.20;62.10
19248;DHT22;9758;48.640;8.148;2024-01-07T08:18:31;7.20;62.10
19248;DHT22;9758;48.640;8.148;2024-01-07T08:20:57;7.20;62.00
19248;DHT22;9758;48.640;8.148;2024-01-07T08:23:24;7.20;62.10
19248;DHT22;9758;48.640;8.148;2024-01-07T08:25:53;7.20;62.30
19248;DHT22;9758;48.640;8.148;2024-01-07T08:28:19;7.20;62.10
19248;DHT22;9758;48.640;8.148;2024-01-07T08:30:47;7.20;62.30
19248;DHT22;9758;48.640;8.148;2024-01-07T08:33:14;7.20;62.30
19248;DHT22;9758;48.640;8.148;2024-01-07T08:35:41;7.20;62.30
19248;DHT22;9758;48.640;8.148;2024-01-07T08:38:08;7.30;62.20
19248;DHT22;9758;48.640;8.148;2024-01-07T08:40:34;7.30;62.20
19248;DHT22;9758;48.640;8.148;2024-01-07T08:43:03;7.40;62.30
19248;DHT22;9758;48.640;8.148;2024-01-07T08:45:30;7.40;62.00
19248;DHT22;9758;48.640;8.148;2024-01-07T08:47:57;7.40;62.00
19248;DHT22;9758;48.640;8.148;2024-01-07T08:50:24;7.50;62.10
19248;DHT22;9758;48.640;8.148;2024-01-07T08:52:50;7.50;62.00
19248;DHT22;9758;48.640;8.148;2024-01-07T08:55:17;7.40;61.70
19248;DHT22;9758;48.640;8.148;2024-01-07T08:57:44;7.40;61.90
19248;DHT22;9758;48.640;8.148;2024-01-07T09:00:16;7.40;62.00
19248;DHT22;9758;48.640;8.148;2024-01-07T09:02:43;7.30;62.00
19248;DHT22;9758;48.640;8.148;2024-01-07T09:05:10;7.30;62.20
19248;DHT22;9758;48.640;8.148;2024-01-07T09:07:37;7.40;62.20
19248;DHT22;9758;48.640;8.148;2024-01-07T09:10:05;7.40;62.00
19248;DHT22;9758;48.640;8.148;2024-01-07T09:12:36;7.40;62.00
19248;DHT22;9758;48.640;8.148;2024-01-07T09:15:03;7.40;62.10
19248;DHT22;9758;48.640;8.148;2024-01-07T09:17:34;7.50;62.10
19248;DHT22;9758;48.640;8.148;2024-01-07T09:20:01;7.50;62.80
19248;DHT22;9758;48.640;8.148;2024-01-07T09:22:30;7.50;62.10
19248;DHT22;9758;48.640;8.148;2024-01-07T09:24:57;7.50;62.00
19248;DHT22;9758;48.640;8.148;2024-01-07T09:27:23;7.50;62.10
19248;DHT22;9758;48.640;8.148;2024-01-07T09:29:50;7.50;62.00
19248;DHT22;9758;48.640;8.148;2024-01-07T09:32:17;7.50;62.10
19248;DHT22;9758;48.640;8.148;2024-01-07T09:34:45;7.60;62.10
19248;DHT22;9758;48.640;8.148;2024-01-07T09:37:12;7.60;62.00
19248;DHT22;9758;48.640;8.148;2024-01-07T09:39:39;7.70;61.90
19248;DHT22;9758;48.640;8.148;2024-01-07T09:42:08;7.70;61.90
19248;DHT22;9758;48.640;8.148;2024-01-07T09:44:38;7.70;61.90
19248;DHT22;9758;48.640;8.148;2024-01-07T09:47:07;7.70;61.80
19248;DHT22;9758;48.640;8.148;2024-01-07T09:49:36;7.70;61.90
19248;DHT22;9758;48.640;8.148;2024-01-07T09:52:05;7.70;61.80
19248;DHT22;9758;48.640;8.148;2024-01-07T09:54:32;7.70;61.80
19248;DHT22;9758;48.640;8.148;2024-01-07T09:57:01;7.60;61.80
19248;DHT22;9758;48.640;8.148;2024-01-07T09:59:28;7.60;61.70
19248;DHT22;9758;48.640;8.148;2024-01-07T10:01:55;7.60;61.80
19248;DHT22;9758;48.640;8.148;2024-01-07T10:04:23;7.60;61.80
19248;DHT22;9758;48.640;8.148;2024-01-07T10:06:50;7.70;61.90
19248;DHT22;9758;48.640;8.148;2024-01-07T10:09:22;7.70;61.90
19248;DHT22;9758;48.640;8.148;2024-01-07T10:11:49;7.70;61.80
19248;DHT22;9758;48.640;8.148;2024-01-07T10:14:16;7.70;61.90
19248;DHT22;9758;48.640;8.148;2024-01-07T10:16:43;7.70;61.80
19248;DHT22;9758;48.640;8.148;2024-01-07T10:19:09;7.70;61.90
19248;DHT22;9758;48.640;8.148;2024-01-07T10:21:36;7.70;61.90
19248;DHT22;9758;48.640;8.148;2024-01-07T10:24:09;7.70;61.80
19248;DHT22;9758;48.640;8.148;2024-01-07T10:26:38;7.80;61.80
19248;DHT22;9758;48.640;8.148;2024-01-07T10:29:06;7.80;61.90
19248;DHT22;9758;48.640;8.148;2024-01-07T10:31:33;7.80;61.80
19248;DHT22;9758;48.640;8.148;2024-01-07T10:34:00;7.90;61.80
19248;DHT22;9758;48.640;8.148;2024-01-07T10:36:27;7.90;61.80
19248;DHT22;9758;48.640;8.148;2024-01-07T10:38:54;7.90;61.70
19248;DHT22;9758;48.640;8.148;2024-01-07T10:41:21;8.00;61.80
19248;DHT22;9758;48.640;8.148;2024-01-07T10:43:50;8.00;61.70
19248;DHT22;9758;48.640;8.148;2024-01-07T10:46:17;8.00;61.50
19248;DHT22;9758;48.640;8.148;2024-01-07T10:48:51;8.10;61.50
19248;DHT22;9758;48.640;8.148;2024-01-07T10:51:20;8.10;61.50
19248;DHT22;9758;48.640;8.148;2024-01-07T10:53:51;8.10;61.50
19248;DHT22;9758;48.640;8.148;2024-01-07T10:56:23;8.10;61.50
19248;DHT22;9758;48.640;8.148;2024-01-07T10:58:52;8.20;61.50
19248;DHT22;9758;48.640;8.148;2024-01-07T11:01:20;8.10;61.40
19248;DHT22;9758;48.640;8.148;2024-01-07T11:03:55;8.20;61.40
19248;DHT22;9758;48.640;8.148;2024-01-07T11:09:21;8.10;61.20
19248;DHT22;9758;48.640;8.148;2024-01-07T11:11:50;8.10;61.20
19248;DHT22;9758;48.640;8.148;2024-01-07T11:14:38;8.10;61.20
19248;DHT22;9758;48.640;8.148;2024-01-07T11:17:05;8.00;61.20
19248;DHT22;9758;48.640;8.148;2024-01-07T11:19:32;8.00;61.20
19248;DHT22;9758;48.640;8.148;2024-01-07T11:22:21;8.00;61.30
19248;DHT22;9758;48.640;8.148;2024-01-07T11:24:49;8.00;61.40
19248;DHT22;9758;48.640;8.148;2024-01-07T11:27:17;8.00;61.40
19248;DHT22;9758;48.640;8.148;2024-01-07T11:29:53;8.00;61.40
19248;DHT22;9758;48.640;8.148;2024-01-07T11:32:22;8.10;61.40
19248;DHT22;9758;48.640;8.148;2024-01-07T11:34:49;8.10;61.20
19248;DHT22;9758;48.640;8.148;2024-01-07T11:37:18;8.10;61.40
19248;DHT22;9758;48.640;8.148;2024-01-07T11:39:48;8.10;62.00
19248;DHT22;9758;48.640;8.148;2024-01-07T11:42:15;8.10;61.30
19248;DHT22;9758;48.640;8.148;2024-01-07T11:44:51;8.10;61.20
19248;DHT22;9758;48.640;8.148;2024-01-07T11:47:18;8.10;61.00
19248;DHT22;9758;48.640;8.148;2024-01-07T11:49:45;8.00;61.00
19248;DHT22;9758;48.640;8.148;2024-01-07T11:52:12;8.00;61.10
19248;DHT22;9758;48.640;8.148;2024-01-07T11:54:39;8.00;61.10
19248;DHT22;9758;48.640;8.148;2024-01-07T11:57:07;8.00;61.10
19248;DHT22;9758;48.640;8.148;2024-01-07T11:59:34;8.00;61.00
19248;DHT22;9758;48.640;8.148;2024-01-07T12:02:03;7.90;60.90
19248;DHT22;9758;48.640;8.148;2024-01-07T12:04:31;7.90;61.10
19248;DHT22;9758;48.640;8.148;2024-01-07T12:06:58;7.80;61.00
19248;DHT22;9758;48.640;8.148;2024-01-07T12:09:25;7.80;61.10
19248;DHT22;9758;48.640;8.148;2024-01-07T12:11:52;7.80;61.20
19248;DHT22;9758;48.640;8.148;2024-01-07T12:14:19;7.80;61.20
19248;DHT22;9758;48.640;8.148;2024-01-07T12:16:46;7.80;61.20
19248;DHT22;9758;48.640;8.148;2024-01-07T12:19:14;7.80;61.10
19248;DHT22;9758;48.640;8.148;2024-01-07T12:21:41;7.80;61.10
19248;DHT22;9758;48.640;8.148;2024-01-07T12:24:07;7.70;61.10
19248;DHT22;9758;48.640;8.148;2024-01-07T12:26:34;7.70;61.80
19248;DHT22;9758;48.640;8.148;2024-01-07T12:29:00;7.70;61.10
19248;DHT22;9758;48.640;8.148;2024-01-07T12:31:29;7.70;61.00
19248;DHT22;9758;48.640;8.148;2024-01-07T12:33:56;7.70;60.90
19248;DHT22;9758;48.640;8.148;2024-01-07T12:36:25;7.70;61.10
19248;DHT22;9758;48.640;8.148;2024-01-07T12:38:52;7.70;61.10
19248;DHT22;9758;48.640;8.148;2024-01-07T12:41:21;7.70;61.10
19248;DHT22;9758;48.640;8.148;2024-01-07T12:43:48;7.70;61.10
19248;DHT22;9758;48.640;8.148;2024-01-07T12:46:15;7.70;60.90
19248;DHT22;9758;48.640;8.148;2024-01-07T12:48:42;7.70;60.90
19248;DHT22;9758;48.640;8.148;2024-01-07T12:51:09;7.70;60.80
19248;DHT22;9758;48.640;8.148;2024-01-07T12:53:37;7.70;60.80
19248;DHT22;9758;48.640;8.148;2024-01-07T12:56:05;7.70;60.90
19248;DHT22;9758;48.640;8.148;2024-01-07T12:58:32;7.70;61.00
19248;DHT22;9758;48.640;8.148;2024-01-07T13:00:59;7.80;60.90
19248;DHT22;9758;48.640;8.148;2024-01-07T13:03:26;7.70;60.80
19248;DHT22;9758;48.640;8.148;2024-01-07T13:05:53;7.70;60.80
19248;DHT22;9758;48.640;8.148;2024-01-07T13:08:20;7.70;60.70
19248;DHT22;9758;48.640;8.148;2024-01-07T13:10:49;7.70;60.80
19248;DHT22;9758;48.640;8.148;2024-01-07T13:13:15;7.60;60.80
19248;DHT22;9758;48.640;8.148;2024-01-07T13:15:43;7.60;60.60
19248;DHT22;9758;48.640;8.148;2024-01-07T13:18:10;7.60;60.50
19248;DHT22;9758;48.640;8.148;2024-01-07T13:20:39;7.50;60.60
19248;DHT22;9758;48.640;8.148;2024-01-07T13:23:06;7.50;60.70
19248;DHT22;9758;48.640;8.148;2024-01-07T13:25:32;7.50;60.70
19248;DHT22;9758;48.640;8.148;2024-01-07T13:28:00;7.40;60.60
19248;DHT22;9758;48.640;8.148;2024-01-07T13:30:28;7.40;60.60
19248;DHT22;9758;48.640;8.148;2024-01-07T13:32:54;7.40;60.80
19248;DHT22;9758;48.640;8.148;2024-01-07T13:35:22;7.30;60.30
19248;DHT22;9758;48.640;8.148;2024-01-07T13:37:49;7.20;60.40
19248;DHT22;9758;48.640;8.148;2024-01-07T13:40:18;7.10;60.60
19248;DHT22;9758;48.640;8.148;2024-01-07T13:42:45;7.10;60.70
19248;DHT22;9758;48.640;8.148;2024-01-07T13:45:19;7.10;60.80
19248;DHT22;9758;48.640;8.148;2024-01-07T13:47:48;7.10;60.80
19248;DHT22;9758;48.640;8.148;2024-01-07T13:50:15;7.10;60.80
19248;DHT22;9758;48.640;8.148;2024-01-07T13:52:41;7.10;60.80
19248;DHT22;9758;48.640;8.148;2024-01-07T13:55:08;7.10;60.80
19248;DHT22;9758;48.640;8.148;2024-01-07T13:57:35;7.10;60.70
19248;DHT22;9758;48.640;8.148;2024-01-07T14:00:02;7.10;60.60
19248;DHT22;9758;48.640;8.148;2024-01-07T14:02:36;7.00;60.60
19248;DHT22;9758;48.640;8.148;2024-01-07T14:05:04;7.00;60.60
19248;DHT22;9758;48.640;8.148;2024-01-07T14:07:34;7.00;60.60
19248;DHT22;9758;48.640;8.148;2024-01-07T14:10:01;6.90;60.60
19248;DHT22;9758;48.640;8.148;2024-01-07T14:12:28;6.90;60.60
19248;DHT22;9758;48.640;8.148;2024-01-07T14:14:55;7.00;60.60
19248;DHT22;9758;48.640;8.148;2024-01-07T14:17:22;6.90;60.70
19248;DHT22;9758;48.640;8.148;2024-01-07T14:19:50;6.90;60.60
19248;DHT22;9758;48.640;8.148;2024-01-07T14:22:18;6.90;60.50
19248;DHT22;9758;48.640;8.148;2024-01-07T14:24:46;6.90;60.50
19248;DHT22;9758;48.640;8.148;2024-01-07T14:27:13;6.90;60.50
19248;DHT22;9758;48.640;8.148;2024-01-07T14:29:40;6.90;60.50
19248;DHT22;9758;48.640;8.148;2024-01-07T14:32:07;6.90;60.30
19248;DHT22;9758;48.640;8.148;2024-01-07T14:34:33;6.80;60.30
19248;DHT22;9758;48.640;8.148;2024-01-07T14:37:01;6.70;60.30
19248;DHT22;9758;48.640;8.148;2024-01-07T14:39:28;6.70;60.50
19248;DHT22;9758;48.640;8.148;2024-01-07T14:41:55;6.70;60.60
19248;DHT22;9758;48.640;8.148;2024-01-07T14:44:22;6.60;60.40
19248;DHT22;9758;48.640;8.148;2024-01-07T14:46:48;6.60;60.60
19248;DHT22;9758;48.640;8.148;2024-01-07T14:49:15;6.60;60.50
19248;DHT22;9758;48.640;8.148;2024-01-07T14:51:42;6.60;60.40
19248;DHT22;9758;48.640;8.148;2024-01-07T14:54:10;6.60;60.60
19248;DHT22;9758;48.640;8.148;2024-01-07T14:56:37;6.60;60.50
19248;DHT22;9758;48.640;8.148;2024-01-07T14:59:04;6.60;60.60
19248;DHT22;9758;48.640;8.148;2024-01-07T15:01:30;6.60;60.60
19248;DHT22;9758;48.640;8.148;2024-01-07T15:03:57;6.60;60.50
19248;DHT22;9758;48.640;8.148;2024-01-07T15:06:24;6.60;60.50
19248;DHT22;9758;48.640;8.148;2024-01-07T15:08:52;6.60;60.60
19248;DHT22;9758;48.640;8.148;2024-01-07T15:11:21;6.60;60.30
19248;DHT22;9758;48.640;8.148;2024-01-07T15:13:48;6.50;60.90
19248;DHT22;9758;48.640;8.148;2024-01-07T15:16:15;6.50;60.50
19248;DHT22;9758;48.640;8.148;2024-01-07T15:18:41;6.40;60.40
19248;DHT22;9758;48.640;8.148;2024-01-07T15:21:08;6.40;60.60
19248;DHT22;9758;48.640;8.148;2024-01-07T15:23:35;6.40;60.60
19248;DHT22;9758;48.640;8.148;2024-01-07T15:26:02;6.40;60.50
19248;DHT22;9758;48.640;8.148;2024-01-07T15:28:30;6.40;60.60
19248;DHT22;9758;48.640;8.148;2024-01-07T15:30:56;6.40;60.30
19248;DHT22;9758;48.640;8.148;2024-01-07T15:33:23;6.40;60.20
19248;DHT22;9758;48.640;8.148;2024-01-07T15:35:50;6.30;60.10
19248;DHT22;9758;48.640;8.148;2024-01-07T15:38:17;6.30;60.00
19248;DHT22;9758;48.640;8.148;2024-01-07T15:40:44;6.20;60.30
19248;DHT22;9758;48.640;8.148;2024-01-07T15:43:11;6.10;60.10
19248;DHT22;9758;48.640;8.148;2024-01-07T15:45:39;6.10;60.20
19248;DHT22;9758;48.640;8.148;2024-01-07T15:48:06;6.00;60.60
19248;DHT22;9758;48.640;8.148;2024-01-07T15:50:33;6.00;60.50
19248;DHT22;9758;48.640;8.148;2024-01-07T15:53:00;5.90;59.90
19248;DHT22;9758;48.640;8.148;2024-01-07T15:55:27;5.80;60.30
19248;DHT22;9758;48.640;8.148;2024-01-07T15:57:54;5.80;60.30
19248;DHT22;9758;48.640;8.148;2024-01-07T16:00:21;5.70;60.30
19248;DHT22;9758;48.640;8.148;2024-01-07T16:02:49;5.70;60.70
19248;DHT22;9758;48.640;8.148;2024-01-07T16:05:16;5.70;60.50